createdAt,value
2023-05-06T00:00:14.560Z,16.60
2023-05-06T00:02:43.112Z,16.60
2023-05-06T00:05:10.521Z,16.60
2023-05-06T00:07:37.798Z,16.60
2023-05-06T00:10:05.384Z,16.60
2023-05-06T00:12:32.375Z,16.60
2023-05-06T00:14:59.385Z,16.60
2023-05-06T00:17:26.384Z,16.60
2023-05-06T00:19:53.458Z,16.50
2023-05-06T00:22:20.401Z,16.50
2023-05-06T00:24:47.549Z,16.50
2023-05-06T00:27:14.471Z,16.50
2023-05-06T00:29:41.559Z,16.50
2023-05-06T00:32:08.658Z,16.50
2023-05-06T00:34:35.611Z,16.50
2023-05-06T00:37:02.641Z,16.50
2023-05-06T00:39:30.648Z,16.50
2023-05-06T00:42:04.592Z,16.40
2023-05-06T00:44:34.512Z,16.40
2023-05-06T00:47:01.967Z,16.40
2023-05-06T00:49:30.812Z,16.40
2023-05-06T00:51:58.723Z,16.40
2023-05-06T00:54:26.817Z,16.40
2023-05-06T00:56:54.321Z,16.40
2023-05-06T00:59:23.041Z,16.30
2023-05-06T01:01:52.198Z,16.30
2023-05-06T01:04:19.465Z,16.30
2023-05-06T01:07:10.634Z,16.30
2023-05-06T01:09:52.857Z,16.30
2023-05-06T01:12:50.598Z,16.20
2023-05-06T01:15:24.111Z,16.20
2023-05-06T01:17:52.929Z,16.20
2023-05-06T01:20:21.786Z,16.20
2023-05-06T01:22:50.064Z,16.20
2023-05-06T01:25:23.758Z,16.20
2023-05-06T01:27:50.685Z,16.20
2023-05-06T01:30:19.463Z,16.10
2023-05-06T01:33:23.966Z,16.10
2023-05-06T01:36:23.067Z,16.10
2023-05-06T01:39:15.722Z,16.10
2023-05-06T01:41:44.512Z,16.20
2023-05-06T01:44:12.471Z,16.10
2023-05-06T01:46:41.938Z,16.10
2023-05-06T01:49:11.589Z,16.10
2023-05-06T01:51:38.948Z,16.10
2023-05-06T01:54:05.972Z,16.10
2023-05-06T01:56:32.955Z,16.10
2023-05-06T01:59:00.140Z,16.10
2023-05-06T02:01:27.354Z,16.10
2023-05-06T02:03:54.550Z,16.10
2023-05-06T02:06:21.900Z,16.00
2023-05-06T02:08:49.523Z,16.00
2023-05-06T02:11:20.835Z,16.00
2023-05-06T02:13:50.378Z,16.00
2023-05-06T02:16:18.265Z,16.00
2023-05-06T02:18:45.902Z,16.00
2023-05-06T02:21:12.865Z,15.90
2023-05-06T02:23:40.049Z,16.00
2023-05-06T02:26:06.978Z,15.90
2023-05-06T02:28:33.940Z,15.90
2023-05-06T02:31:00.910Z,15.90
2023-05-06T02:33:27.958Z,15.90
2023-05-06T02:35:54.937Z,15.90
2023-05-06T02:38:22.110Z,15.90
2023-05-06T02:40:49.096Z,15.90
2023-05-06T02:43:16.125Z,15.90
2023-05-06T02:45:43.193Z,15.80
2023-05-06T02:48:10.237Z,15.90
2023-05-06T02:50:37.192Z,15.80
2023-05-06T02:53:04.170Z,15.80
2023-05-06T02:55:31.303Z,15.80
2023-05-06T02:57:58.300Z,15.80
2023-05-06T03:00:25.287Z,15.80
2023-05-06T03:02:52.309Z,15.70
2023-05-06T03:05:19.567Z,15.80
2023-05-06T03:07:46.849Z,15.80
2023-05-06T03:10:14.579Z,15.80
2023-05-06T03:12:41.588Z,15.70
2023-05-06T03:15:09.233Z,15.70
2023-05-06T03:17:38.446Z,15.70
2023-05-06T03:20:08.687Z,15.70
2023-05-06T03:22:37.963Z,15.70
2023-05-06T03:25:05.492Z,15.70
2023-05-06T03:27:34.320Z,15.70
2023-05-06T03:30:08.454Z,15.70
2023-05-06T03:32:37.269Z,15.70
2023-05-06T03:35:08.427Z,15.70
2023-05-06T03:37:36.196Z,15.60
2023-05-06T03:40:04.839Z,15.60
2023-05-06T03:42:32.922Z,15.60
2023-05-06T03:45:01.042Z,15.60
2023-05-06T03:47:31.157Z,15.60
2023-05-06T03:49:59.417Z,15.60
2023-05-06T03:52:26.974Z,15.60
2023-05-06T03:54:54.033Z,15.60
2023-05-06T03:57:21.347Z,15.60
2023-05-06T03:59:48.297Z,15.70
2023-05-06T04:02:16.100Z,15.70
2023-05-06T04:04:43.473Z,15.70
2023-05-06T04:07:10.638Z,15.80
2023-05-06T04:09:37.580Z,15.80
2023-05-06T04:12:07.716Z,15.80
2023-05-06T04:14:35.657Z,15.80
2023-05-06T04:17:02.942Z,15.90
2023-05-06T04:19:30.143Z,15.90
2023-05-06T04:21:58.473Z,15.90
2023-05-06T04:24:28.359Z,15.90
2023-05-06T04:26:56.185Z,16.00
2023-05-06T04:29:23.974Z,16.10
2023-05-06T04:31:58.595Z,16.10
2023-05-06T04:34:28.916Z,16.10
2023-05-06T04:36:59.503Z,16.20
2023-05-06T04:39:33.021Z,16.20
2023-05-06T04:42:00.151Z,16.20
2023-05-06T04:44:34.700Z,16.30
2023-05-06T04:47:03.717Z,16.30
2023-05-06T04:49:30.733Z,16.40
2023-05-06T04:51:57.870Z,16.40
2023-05-06T04:54:25.716Z,16.50
2023-05-06T04:56:52.679Z,16.60
2023-05-06T04:59:20.808Z,16.70
2023-05-06T05:01:47.982Z,16.80
2023-05-06T05:04:16.063Z,16.80
2023-05-06T05:06:43.202Z,16.80
2023-05-06T05:09:10.738Z,16.90
2023-05-06T05:11:41.483Z,17.00
2023-05-06T05:14:08.680Z,17.00
2023-05-06T05:16:35.926Z,17.20
2023-05-06T05:19:04.354Z,17.30
2023-05-06T05:21:33.464Z,17.40
2023-05-06T05:24:00.788Z,17.50
2023-05-06T05:26:28.009Z,17.60
2023-05-06T05:28:57.366Z,17.70
2023-05-06T05:31:24.983Z,17.90
2023-05-06T05:33:52.131Z,18.00
2023-05-06T05:36:22.256Z,18.20
2023-05-06T05:38:52.724Z,18.30
2023-05-06T05:41:21.712Z,18.50
2023-05-06T05:43:49.074Z,18.60
2023-05-06T05:46:17.023Z,18.70
2023-05-06T05:48:46.470Z,18.90
2023-05-06T05:51:14.402Z,19.10
2023-05-06T05:53:42.287Z,19.30
2023-05-06T05:56:09.893Z,19.50
2023-05-06T05:58:37.570Z,19.70
2023-05-06T06:01:04.556Z,19.90
2023-05-06T06:03:32.612Z,20.20
2023-05-06T06:05:59.527Z,20.40
2023-05-06T06:08:29.783Z,20.70
2023-05-06T06:10:57.951Z,21.10
2023-05-06T06:13:31.065Z,21.50
2023-05-06T06:15:59.542Z,21.90
2023-05-06T06:18:26.722Z,22.60
2023-05-06T06:20:53.959Z,23.30
2023-05-06T06:23:21.870Z,23.90
2023-05-06T06:25:49.222Z,24.60
2023-05-06T06:28:16.349Z,25.00
2023-05-06T06:30:44.512Z,25.50
2023-05-06T06:33:11.677Z,26.00
2023-05-06T06:35:40.279Z,26.60
2023-05-06T06:38:07.185Z,26.90
2023-05-06T06:40:34.013Z,26.90
2023-05-06T06:43:01.256Z,26.90
2023-05-06T06:45:46.673Z,27.30
2023-05-06T06:48:13.616Z,27.60
2023-05-06T06:50:40.502Z,27.50
2023-05-06T06:53:07.442Z,27.70
2023-05-06T06:55:34.315Z,28.00
2023-05-06T06:58:01.106Z,28.30
2023-05-06T07:00:27.918Z,28.40
2023-05-06T07:02:55.431Z,28.90
2023-05-06T07:05:22.310Z,29.40
2023-05-06T07:07:49.145Z,29.80
2023-05-06T07:10:16.028Z,30.10
2023-05-06T07:12:42.925Z,30.40
2023-05-06T07:15:10.272Z,30.70
2023-05-06T07:17:37.493Z,30.80
2023-05-06T07:20:04.556Z,31.20
2023-05-06T07:22:31.456Z,31.40
2023-05-06T07:24:58.325Z,31.60
2023-05-06T07:27:25.406Z,31.70
2023-05-06T07:29:52.288Z,31.60
2023-05-06T07:32:19.240Z,31.20
2023-05-06T07:34:46.200Z,31.10
2023-05-06T07:37:13.016Z,31.10
2023-05-06T07:39:39.866Z,30.80
2023-05-06T07:42:07.550Z,30.50
2023-05-06T07:44:34.424Z,30.50
2023-05-06T07:47:01.363Z,30.60
2023-05-06T07:49:30.540Z,31.10
2023-05-06T07:51:57.471Z,31.80
2023-05-06T07:54:24.406Z,32.40
2023-05-06T07:56:52.187Z,32.80
2023-05-06T07:59:19.018Z,32.70
2023-05-06T08:01:45.859Z,32.70
2023-05-06T08:04:12.854Z,32.80
2023-05-06T08:06:39.803Z,32.90
2023-05-06T08:09:06.979Z,33.00
2023-05-06T08:11:33.863Z,33.30
2023-05-06T08:14:00.670Z,33.10
2023-05-06T08:16:27.707Z,32.90
2023-05-06T08:18:54.512Z,32.50
2023-05-06T08:21:21.364Z,32.40
2023-05-06T08:23:48.291Z,32.20
2023-05-06T08:26:15.069Z,32.20
2023-05-06T08:28:41.872Z,32.20
2023-05-06T08:31:08.886Z,32.20
2023-05-06T08:33:36.210Z,32.50
2023-05-06T08:36:03.140Z,32.70
2023-05-06T08:38:30.100Z,33.00
2023-05-06T08:41:00.531Z,33.00
2023-05-06T08:43:28.705Z,33.20
2023-05-06T08:45:55.640Z,33.20
2023-05-06T08:48:22.521Z,33.50
2023-05-06T08:50:49.925Z,33.80
2023-05-06T08:53:17.002Z,34.00
2023-05-06T08:55:45.471Z,33.80
2023-05-06T08:58:15.776Z,33.70
2023-05-06T09:00:43.149Z,33.70
2023-05-06T09:03:10.156Z,33.50
2023-05-06T09:05:37.031Z,33.20
2023-05-06T09:08:03.897Z,33.10
2023-05-06T09:10:38.210Z,33.50
2023-05-06T09:13:05.051Z,33.80
2023-05-06T09:15:42.117Z,33.90
2023-05-06T09:18:09.281Z,33.90
2023-05-06T09:20:36.198Z,33.90
2023-05-06T09:23:03.142Z,34.40
2023-05-06T09:25:30.007Z,34.20
2023-05-06T09:28:06.677Z,34.00
2023-05-06T09:30:33.623Z,33.70
2023-05-06T09:33:04.885Z,33.60
2023-05-06T09:35:42.045Z,34.00
2023-05-06T09:38:09.295Z,34.10
2023-05-06T09:40:36.809Z,34.40
2023-05-06T09:43:04.196Z,34.50
2023-05-06T09:45:31.422Z,34.50
2023-05-06T09:47:58.638Z,35.10
2023-05-06T09:50:26.483Z,35.80
2023-05-06T09:52:54.687Z,36.30
2023-05-06T09:55:22.531Z,36.30
2023-05-06T09:57:49.758Z,36.40
2023-05-06T10:00:17.358Z,36.40
2023-05-06T10:02:44.928Z,36.10
2023-05-06T10:05:13.150Z,35.90
2023-05-06T10:07:41.905Z,35.80
2023-05-06T10:10:09.551Z,35.80
2023-05-06T10:12:36.841Z,35.60
2023-05-06T10:15:04.549Z,35.40
2023-05-06T10:17:32.162Z,35.40
2023-05-06T10:20:00.456Z,35.40
2023-05-06T10:22:46.100Z,35.40
2023-05-06T10:25:31.794Z,35.00
2023-05-06T10:27:59.001Z,35.20
2023-05-06T10:30:26.643Z,35.50
2023-05-06T10:32:56.677Z,35.70
2023-05-06T10:35:32.207Z,35.30
2023-05-06T10:38:00.209Z,34.90
2023-05-06T10:40:27.084Z,35.00
2023-05-06T10:43:13.853Z,35.70
2023-05-06T10:45:58.905Z,36.30
2023-05-06T10:48:25.961Z,36.30
2023-05-06T10:51:12.747Z,35.60
2023-05-06T10:53:58.892Z,35.40
2023-05-06T10:56:26.395Z,35.40
2023-05-06T10:58:54.848Z,35.60
2023-05-06T11:01:22.887Z,35.90
2023-05-06T11:03:50.535Z,36.10
2023-05-06T11:06:35.841Z,36.10
2023-05-06T11:09:04.319Z,35.70
2023-05-06T11:11:49.630Z,35.70
2023-05-06T11:14:24.850Z,35.90
2023-05-06T11:16:52.300Z,35.40
2023-05-06T11:19:23.599Z,35.20
2023-05-06T11:21:50.822Z,35.10
2023-05-06T11:24:25.261Z,35.30
2023-05-06T11:26:52.488Z,35.40
2023-05-06T11:29:19.629Z,35.50
2023-05-06T11:31:46.617Z,35.60
2023-05-06T11:34:18.846Z,36.20
2023-05-06T11:36:52.236Z,36.80
2023-05-06T11:39:19.142Z,36.90
2023-05-06T11:41:45.950Z,36.60
2023-05-06T11:44:24.092Z,35.80
2023-05-06T11:46:51.336Z,35.60
2023-05-06T11:49:18.233Z,35.70
2023-05-06T11:51:45.024Z,35.90
2023-05-06T11:54:12.099Z,36.10
2023-05-06T11:56:46.071Z,36.30
2023-05-06T11:59:12.998Z,36.60
2023-05-06T12:01:43.618Z,36.70
2023-05-06T12:04:11.420Z,36.70
2023-05-06T12:06:39.054Z,36.60
2023-05-06T12:09:06.819Z,36.40
2023-05-06T12:11:34.688Z,36.40
2023-05-06T12:14:05.819Z,36.20
2023-05-06T12:16:33.704Z,36.00
2023-05-06T12:19:00.956Z,35.80
2023-05-06T12:21:28.725Z,35.40
2023-05-06T12:23:59.670Z,35.50
2023-05-06T12:26:32.148Z,35.60
2023-05-06T12:29:06.982Z,35.60
2023-05-06T12:31:34.058Z,35.60
2023-05-06T12:34:01.448Z,35.60
2023-05-06T12:36:28.545Z,35.80
2023-05-06T12:38:59.102Z,36.00
2023-05-06T12:41:36.418Z,36.00
2023-05-06T12:44:03.489Z,35.30
2023-05-06T12:46:30.498Z,34.70
2023-05-06T12:49:01.793Z,34.60
2023-05-06T12:51:30.700Z,34.50
2023-05-06T12:53:57.658Z,34.20
2023-05-06T12:56:24.680Z,33.60
2023-05-06T12:58:58.291Z,32.70
2023-05-06T13:01:25.142Z,31.80
2023-05-06T13:03:57.197Z,31.40
2023-05-06T13:06:24.464Z,31.20
2023-05-06T13:08:51.295Z,31.10
2023-05-06T13:11:18.180Z,30.90
2023-05-06T13:13:45.143Z,30.80
2023-05-06T13:16:12.002Z,30.60
2023-05-06T13:18:39.058Z,30.10
2023-05-06T13:21:05.922Z,29.80
2023-05-06T13:23:35.118Z,29.80
2023-05-06T13:26:05.813Z,29.80
2023-05-06T13:28:34.000Z,29.70
2023-05-06T13:31:00.949Z,29.20
2023-05-06T13:33:28.155Z,29.00
2023-05-06T13:35:55.066Z,29.00
2023-05-06T13:38:22.345Z,29.20
2023-05-06T13:40:52.913Z,29.40
2023-05-06T13:43:20.192Z,29.50
2023-05-06T13:45:47.385Z,29.60
2023-05-06T13:48:14.453Z,29.60
2023-05-06T13:50:46.010Z,29.50
2023-05-06T13:53:13.515Z,29.10
2023-05-06T13:55:41.340Z,28.90
2023-05-06T13:58:08.242Z,28.80
2023-05-06T14:00:36.234Z,28.70
2023-05-06T14:03:03.342Z,28.60
2023-05-06T14:05:30.316Z,28.60
2023-05-06T14:07:57.149Z,28.60
2023-05-06T14:10:23.996Z,28.40
2023-05-06T14:12:52.465Z,28.30
2023-05-06T14:15:19.356Z,28.10
2023-05-06T14:17:48.947Z,28.00
2023-05-06T14:20:16.319Z,27.90
2023-05-06T14:22:43.682Z,27.90
2023-05-06T14:25:10.935Z,27.90
2023-05-06T14:27:40.259Z,27.90
2023-05-06T14:30:09.324Z,27.90
2023-05-06T14:32:37.244Z,28.10
2023-05-06T14:35:04.685Z,28.20
2023-05-06T14:37:31.507Z,28.20
2023-05-06T14:39:58.597Z,28.10
2023-05-06T14:42:25.648Z,28.20
2023-05-06T14:44:52.522Z,28.20
2023-05-06T14:47:19.300Z,28.20
2023-05-06T14:49:49.234Z,28.10
2023-05-06T14:52:16.280Z,28.00
2023-05-06T14:54:43.176Z,27.90
2023-05-06T14:57:10.862Z,27.90
2023-05-06T14:59:38.377Z,27.80
2023-05-06T15:02:07.423Z,27.70
2023-05-06T15:04:37.371Z,27.70
2023-05-06T15:07:04.627Z,27.70
2023-05-06T15:09:31.534Z,27.80
2023-05-06T15:12:00.926Z,27.70
2023-05-06T15:14:30.741Z,27.70
2023-05-06T15:17:00.455Z,27.70
2023-05-06T15:19:30.631Z,27.70
2023-05-06T15:21:57.914Z,27.70
2023-05-06T15:24:25.107Z,27.70
2023-05-06T15:26:52.845Z,27.70
2023-05-06T15:29:19.653Z,27.70
2023-05-06T15:31:49.414Z,27.60
2023-05-06T15:34:16.512Z,27.60
2023-05-06T15:36:45.587Z,27.50
2023-05-06T15:39:12.624Z,27.30
2023-05-06T15:41:39.566Z,27.20
2023-05-06T15:44:06.645Z,27.10
2023-05-06T15:46:37.119Z,27.20
2023-05-06T15:51:36.622Z,27.30
2023-05-06T15:54:06.408Z,27.30
2023-05-06T15:56:40.536Z,27.30
2023-05-06T15:59:08.364Z,27.30
2023-05-06T16:02:16.575Z,27.30
2023-05-06T16:04:23.211Z,27.30
2023-05-06T16:06:50.430Z,27.50
2023-05-06T16:09:19.535Z,27.60
2023-05-06T16:11:49.352Z,27.70
2023-05-06T16:14:16.732Z,27.80
2023-05-06T16:16:43.620Z,27.90
2023-05-06T16:19:12.918Z,28.10
2023-05-06T16:21:39.822Z,28.20
2023-05-06T16:24:06.687Z,28.10
2023-05-06T16:26:33.610Z,27.80
2023-05-06T16:29:01.821Z,27.40
2023-05-06T16:31:29.019Z,27.10
2023-05-06T16:33:58.371Z,26.90
2023-05-06T16:36:25.253Z,26.80
2023-05-06T16:38:54.757Z,26.70
2023-05-06T16:41:21.909Z,26.70
2023-05-06T16:43:48.710Z,26.60
2023-05-06T16:46:15.604Z,26.50
2023-05-06T16:48:42.570Z,26.40
2023-05-06T16:51:10.576Z,26.30
2023-05-06T16:53:37.441Z,26.20
2023-05-06T16:56:07.322Z,26.10
2023-05-06T16:58:34.724Z,25.90
2023-05-06T17:01:01.605Z,25.90
2023-05-06T17:03:28.736Z,25.80
2023-05-06T17:05:55.688Z,25.80
2023-05-06T17:08:26.881Z,25.80
2023-05-06T17:10:54.246Z,25.80
2023-05-06T17:13:23.568Z,25.70
2023-05-06T17:15:50.713Z,25.70
2023-05-06T17:18:20.254Z,25.50
2023-05-06T17:20:55.201Z,25.50
2023-05-06T17:23:24.427Z,25.40
2023-05-06T17:25:51.709Z,25.30
2023-05-06T17:28:18.976Z,25.30
2023-05-06T17:31:08.511Z,25.20
2023-05-06T17:33:38.833Z,25.20
2023-05-06T17:36:05.863Z,25.20
2023-05-06T17:38:32.660Z,25.00
2023-05-06T17:40:59.468Z,25.00
2023-05-06T17:43:26.273Z,25.00
2023-05-06T17:45:53.528Z,24.90
2023-05-06T17:48:23.504Z,24.80
2023-05-06T17:50:51.088Z,24.70
2023-05-06T17:53:23.371Z,24.60
2023-05-06T17:55:50.604Z,24.50
2023-05-06T17:58:19.366Z,24.30
2023-05-06T18:00:47.838Z,24.10
2023-05-06T18:03:15.107Z,24.00
2023-05-06T18:05:42.211Z,23.80
2023-05-06T18:08:09.832Z,23.70
2023-05-06T18:10:36.670Z,23.60
2023-05-06T18:13:04.054Z,23.50
2023-05-06T18:15:30.996Z,23.30
2023-05-06T18:17:57.994Z,23.20
2023-05-06T18:20:24.877Z,23.10
2023-05-06T18:22:52.421Z,23.00
2023-05-06T18:25:19.416Z,22.80
2023-05-06T18:27:47.632Z,22.70
2023-05-06T18:30:14.800Z,22.60
2023-05-06T18:32:41.648Z,22.50
2023-05-06T18:35:10.977Z,22.40
2023-05-06T18:37:38.523Z,22.30
2023-05-06T18:40:06.119Z,22.20
2023-05-06T18:42:34.013Z,22.10
2023-05-06T18:45:06.880Z,22.10
2023-05-06T18:47:33.861Z,22.00
2023-05-06T18:50:00.808Z,21.90
2023-05-06T18:52:27.996Z,21.90
2023-05-06T18:54:54.847Z,21.80
2023-05-06T18:57:21.800Z,21.70
2023-05-06T18:59:48.706Z,21.60
2023-05-06T19:02:15.533Z,21.60
2023-05-06T19:04:43.009Z,21.50
2023-05-06T19:07:11.100Z,21.40
2023-05-06T19:09:38.043Z,21.40
2023-05-06T19:12:04.952Z,21.40
2023-05-06T19:14:34.813Z,21.30
2023-05-06T19:17:02.986Z,21.20
2023-05-06T19:19:29.838Z,21.20
2023-05-06T19:21:57.465Z,21.10
2023-05-06T19:24:24.270Z,21.10
2023-05-06T19:26:51.080Z,21.10
2023-05-06T19:29:17.941Z,21.00
2023-05-06T19:31:45.161Z,20.90
2023-05-06T19:34:11.980Z,20.90
2023-05-06T19:36:38.757Z,20.90
2023-05-06T19:39:05.629Z,20.80
2023-05-06T19:41:32.446Z,20.80
2023-05-06T19:43:59.560Z,20.70
2023-05-06T19:46:26.387Z,20.70
2023-05-06T19:48:53.252Z,20.70
2023-05-06T19:51:20.100Z,20.60
2023-05-06T19:53:46.976Z,20.50
2023-05-06T19:56:14.396Z,20.60
2023-05-06T19:58:41.208Z,20.50
2023-05-06T20:01:09.006Z,20.50
2023-05-06T20:03:36.203Z,20.40
2023-05-06T20:06:04.153Z,20.40
2023-05-06T20:08:31.623Z,20.40
2023-05-06T20:10:58.783Z,20.30
2023-05-06T20:13:26.217Z,20.30
2023-05-06T20:15:54.687Z,20.30
2023-05-06T20:18:23.242Z,20.20
2023-05-06T20:20:51.085Z,20.20
2023-05-06T20:23:18.974Z,20.20
2023-05-06T20:25:46.018Z,20.10
2023-05-06T20:28:13.577Z,20.10
2023-05-06T20:30:41.096Z,20.00
2023-05-06T20:33:08.589Z,20.00
2023-05-06T20:35:38.705Z,20.00
2023-05-06T20:38:06.909Z,20.00
2023-05-06T20:40:35.991Z,19.90
2023-05-06T20:43:03.875Z,19.90
2023-05-06T20:45:31.612Z,19.90
2023-05-06T20:47:58.723Z,19.90
2023-05-06T20:50:25.855Z,19.90
2023-05-06T20:52:54.363Z,19.80
2023-05-06T20:55:23.209Z,19.80
2023-05-06T20:57:50.370Z,19.80
2023-05-06T21:00:17.576Z,19.80
2023-05-06T21:02:44.608Z,19.70
2023-05-06T21:05:11.905Z,19.70
2023-05-06T21:07:39.020Z,19.70
2023-05-06T21:10:06.030Z,19.70
2023-05-06T21:12:33.427Z,19.60
2023-05-06T21:15:00.464Z,19.60
2023-05-06T21:17:27.449Z,19.60
2023-05-06T21:19:54.390Z,19.50
2023-05-06T21:22:22.385Z,19.50
2023-05-06T21:24:49.789Z,19.40
2023-05-06T21:27:16.809Z,19.40
2023-05-06T21:29:43.620Z,19.40
2023-05-06T21:32:10.451Z,19.40
2023-05-06T21:34:37.673Z,19.40
2023-05-06T21:37:04.527Z,19.30
2023-05-06T21:39:31.333Z,19.30
2023-05-06T21:41:58.196Z,19.30
2023-05-06T21:44:25.057Z,19.20
2023-05-06T21:46:52.015Z,19.20
2023-05-06T21:49:19.529Z,19.20
2023-05-06T21:51:46.620Z,19.10
2023-05-06T21:54:13.481Z,19.10
2023-05-06T21:56:40.283Z,19.00
2023-05-06T21:59:07.941Z,19.00
2023-05-06T22:01:36.331Z,19.00
2023-05-06T22:04:09.332Z,19.00
2023-05-06T22:06:36.529Z,18.90
2023-05-06T22:09:04.526Z,18.90
2023-05-06T22:11:31.445Z,18.90
2023-05-06T22:13:58.266Z,18.90
2023-05-06T22:16:25.678Z,18.80
2023-05-06T22:18:53.156Z,18.80
2023-05-06T22:21:20.045Z,18.80
2023-05-06T22:23:46.845Z,18.70
2023-05-06T22:26:13.755Z,18.70
2023-05-06T22:28:40.692Z,18.60
2023-05-06T22:31:07.572Z,18.60
2023-05-06T22:33:34.420Z,18.60
2023-05-06T22:36:01.290Z,18.60
2023-05-06T22:38:28.147Z,18.50
2023-05-06T22:40:54.976Z,18.60
2023-05-06T22:43:21.850Z,18.50
2023-05-06T22:45:48.707Z,18.50
2023-05-06T22:48:15.585Z,18.40
2023-05-06T22:50:42.403Z,18.40
2023-05-06T22:53:15.035Z,18.40
2023-05-06T22:55:42.837Z,18.40
2023-05-06T22:58:09.741Z,18.30
2023-05-06T23:00:36.652Z,18.30
2023-05-06T23:03:03.628Z,18.20
2023-05-06T23:05:30.699Z,18.20
2023-05-06T23:07:57.555Z,18.20
2023-05-06T23:10:24.582Z,18.20
2023-05-06T23:12:51.471Z,18.20
2023-05-06T23:15:18.306Z,18.20
2023-05-06T23:17:45.231Z,18.20
2023-05-06T23:20:12.864Z,18.20
2023-05-06T23:22:39.775Z,18.20
2023-05-06T23:25:08.528Z,18.20
2023-05-06T23:27:37.250Z,18.20
2023-05-06T23:30:04.239Z,18.10
2023-05-06T23:32:31.086Z,18.10
2023-05-06T23:34:57.949Z,18.10
2023-05-06T23:37:24.794Z,18.10
2023-05-06T23:39:51.821Z,18.10
2023-05-06T23:42:18.646Z,18.10
2023-05-06T23:44:45.767Z,18.20
2023-05-06T23:47:12.616Z,18.10
2023-05-06T23:49:39.427Z,18.10
2023-05-06T23:52:06.380Z,18.10
2023-05-06T23:54:33.237Z,18.20
2023-05-06T23:57:00.135Z,18.20
2023-05-06T23:59:29.491Z,18.10
